Terminal Aerodrome Forecast
Issued by NWS Sterling, VA

Home | Current Version | Previous Version | Text Only | Print | Product List | Glossary On
Versions: 1 2 3 4 5 6 7 8 9 10 11 12 13 14 15 16 17 18 19 20 21 22 23 24 25 26 27
696
FTUS41 KLWX 221724
TAFBWI
TAF
KBWI 221724Z 2218/2324 20008KT P6SM FEW050 SCT250
     FM222200 20010KT P6SM BKN050
     FM230000 19008KT P6SM VCTS SCT050CB
     FM230100 20008KT P6SM VCTS SCT025 BKN050CB
     FM230500 24007KT P6SM BKN050
     FM231500 33008KT P6SM BKN050
     FM231800 32007KT P6SM SCT050=

USA.gov is the U.S. government's official web portal to all federal, state and local government web resources and services.